createdAt,value
2018-07-10T00:03:12.964Z,1.60
2018-07-10T00:06:46.139Z,1.67
2018-07-10T00:11:07.823Z,1.70
2018-07-10T00:14:09.936Z,1.70
2018-07-10T00:17:12.120Z,1.50
2018-07-10T00:20:14.309Z,1.80
2018-07-10T00:23:16.300Z,1.70
2018-07-10T00:26:18.435Z,1.80
2018-07-10T00:29:20.522Z,1.73
2018-07-10T00:32:22.647Z,1.80
2018-07-10T00:35:25.134Z,1.93
2018-07-10T00:38:38.856Z,1.63
2018-07-10T00:41:41.561Z,1.80
2018-07-10T00:44:43.562Z,1.83
2018-07-10T00:47:45.714Z,1.70
2018-07-10T00:50:47.828Z,1.70
2018-07-10T00:53:50.078Z,1.70
2018-07-10T00:56:52.167Z,1.60
2018-07-10T00:59:54.256Z,1.50
2018-07-10T01:02:56.950Z,1.73
2018-07-10T01:05:58.984Z,1.40
2018-07-10T01:09:01.162Z,1.70
2018-07-10T01:12:03.193Z,1.70
2018-07-10T01:15:05.427Z,1.60
2018-07-10T01:18:07.651Z,1.70
2018-07-10T01:21:19.835Z,1.73
2018-07-10T01:24:21.975Z,1.83
2018-07-10T01:27:23.955Z,1.90
2018-07-10T01:30:26.015Z,1.80
2018-07-10T01:33:29.192Z,1.60
2018-07-10T01:36:31.174Z,2.00
2018-07-10T01:39:33.258Z,1.97
2018-07-10T01:42:35.432Z,1.70
2018-07-10T01:45:37.552Z,1.73
2018-07-10T01:48:39.629Z,1.60
2018-07-10T01:51:41.726Z,1.73
2018-07-10T01:54:43.759Z,1.80
2018-07-10T01:57:46.172Z,1.57
2018-07-10T02:00:48.429Z,1.60
2018-07-10T02:03:50.468Z,1.80
2018-07-10T02:06:52.462Z,1.73
2018-07-10T02:09:54.636Z,1.80
2018-07-10T02:12:56.719Z,1.80
2018-07-10T02:15:58.888Z,1.83
2018-07-10T02:19:01.043Z,1.80
2018-07-10T02:22:04.394Z,1.77
2018-07-10T02:25:06.503Z,1.90
2018-07-10T02:28:09.740Z,1.70
2018-07-10T02:31:11.843Z,2.20
2018-07-10T02:34:13.980Z,1.90
2018-07-10T02:37:15.999Z,2.20
2018-07-10T02:40:18.063Z,1.73
2018-07-10T02:43:20.214Z,2.00
2018-07-10T02:46:22.339Z,2.00
2018-07-10T02:49:24.503Z,1.87
2018-07-10T02:52:39.612Z,1.93
2018-07-10T02:55:42.921Z,2.13
2018-07-10T02:58:45.373Z,1.90
2018-07-10T03:01:47.559Z,1.83
2018-07-10T03:04:56.440Z,2.20
2018-07-10T03:08:00.049Z,2.47
2018-07-10T03:11:02.147Z,2.40
2018-07-10T03:14:06.681Z,2.63
2018-07-10T03:17:08.703Z,3.40
2018-07-10T03:20:10.926Z,3.33
2018-07-10T03:23:13.120Z,3.30
2018-07-10T03:26:15.239Z,3.80
2018-07-10T03:29:17.400Z,3.50
2018-07-10T03:32:19.816Z,2.50
2018-07-10T03:35:21.851Z,2.47
2018-07-10T03:38:23.812Z,2.60
2018-07-10T03:41:26.947Z,2.47
2018-07-10T03:44:29.529Z,2.70
2018-07-10T03:47:31.916Z,2.70
2018-07-10T03:50:34.288Z,2.97
2018-07-10T03:53:36.458Z,3.50
2018-07-10T03:56:38.662Z,3.37
2018-07-10T03:59:45.687Z,3.30
2018-07-10T04:02:49.838Z,3.03
2018-07-10T04:05:51.956Z,2.80
2018-07-10T04:08:54.303Z,2.97
2018-07-10T04:11:56.435Z,3.20
2018-07-10T04:14:59.523Z,2.80
2018-07-10T04:18:06.153Z,3.10
2018-07-10T04:21:18.908Z,3.50
2018-07-10T04:24:21.498Z,3.37
2018-07-10T04:27:30.132Z,2.70
2018-07-10T04:30:40.744Z,2.63
2018-07-10T04:33:44.611Z,3.00
2018-07-10T04:36:47.257Z,3.00
2018-07-10T04:39:49.336Z,3.63
2018-07-10T04:42:55.306Z,3.33
2018-07-10T04:45:58.537Z,3.50
2018-07-10T04:49:05.341Z,3.50
2018-07-10T04:52:17.649Z,3.60
2018-07-10T04:55:19.942Z,3.77
2018-07-10T04:58:22.020Z,3.50
2018-07-10T05:01:32.519Z,3.30
2018-07-10T05:04:34.784Z,3.87
2018-07-10T05:07:37.250Z,4.50
2018-07-10T05:10:39.492Z,3.83
2018-07-10T05:13:43.177Z,5.00
2018-07-10T05:16:45.501Z,4.27
2018-07-10T05:19:47.995Z,4.60
2018-07-10T05:22:50.141Z,4.33
2018-07-10T05:25:54.271Z,3.87
2018-07-10T05:28:56.529Z,4.57
2018-07-10T05:31:58.442Z,4.50
2018-07-10T05:35:01.947Z,5.03
2018-07-10T05:38:04.772Z,4.07
2018-07-10T05:41:07.631Z,4.40
2018-07-10T05:44:09.789Z,5.90
2018-07-10T05:47:12.964Z,4.47
2018-07-10T05:50:16.793Z,4.67
2018-07-10T05:53:18.891Z,5.20
2018-07-10T05:56:21.009Z,5.40
2018-07-10T05:59:23.191Z,5.63
2018-07-10T06:02:26.424Z,5.60
2018-07-10T06:05:28.828Z,5.80
2018-07-10T06:08:31.028Z,5.97
2018-07-10T06:11:34.236Z,5.77
2018-07-10T06:14:36.391Z,7.63
2018-07-10T06:17:38.403Z,6.63
2018-07-10T06:20:41.182Z,6.60
2018-07-10T06:23:44.135Z,6.70
2018-07-10T06:26:51.691Z,7.07
2018-07-10T06:30:04.076Z,6.97
2018-07-10T06:33:27.722Z,7.87
2018-07-10T06:36:32.362Z,7.70
2018-07-10T06:39:34.640Z,7.83
2018-07-10T06:43:44.375Z,7.97
2018-07-10T06:46:53.981Z,8.20
2018-07-10T06:49:57.963Z,8.10
2018-07-10T06:53:01.053Z,9.13
2018-07-10T06:56:02.868Z,9.63
2018-07-10T06:59:04.929Z,9.90
2018-07-10T07:02:07.177Z,10.43
2018-07-10T07:05:09.391Z,10.00
2018-07-10T07:08:12.444Z,9.90
2018-07-10T07:11:14.632Z,9.77
2018-07-10T07:14:16.687Z,9.00
2018-07-10T07:17:18.856Z,8.77
2018-07-10T07:20:21.715Z,7.43
2018-07-10T07:23:23.734Z,7.47
2018-07-10T07:26:25.779Z,7.17
2018-07-10T07:29:28.931Z,6.43
2018-07-10T07:32:31.342Z,6.73
2018-07-10T07:35:33.557Z,6.20
2018-07-10T07:38:35.646Z,5.73
2018-07-10T07:41:38.071Z,5.37
2018-07-10T07:44:40.195Z,5.60
2018-07-10T07:47:42.753Z,4.90
2018-07-10T07:50:44.920Z,4.80
2018-07-10T07:53:47.139Z,4.80
2018-07-10T07:56:49.349Z,6.33
2018-07-10T07:59:51.468Z,4.10
2018-07-10T08:02:53.648Z,4.87
2018-07-10T08:05:56.872Z,4.50
2018-07-10T08:08:58.936Z,5.07
2018-07-10T08:12:01.422Z,4.77
2018-07-10T08:15:03.640Z,4.53
2018-07-10T08:18:05.722Z,4.07
2018-07-10T08:21:07.851Z,3.97
2018-07-10T08:24:10.039Z,4.40
2018-07-10T08:27:13.079Z,3.50
2018-07-10T08:30:15.250Z,3.33
2018-07-10T08:33:17.606Z,3.70
2018-07-10T08:36:19.621Z,3.80
2018-07-10T08:39:21.900Z,3.30
2018-07-10T08:42:24.154Z,3.17
2018-07-10T08:45:26.792Z,3.83
2018-07-10T08:48:29.184Z,3.93
2018-07-10T08:51:31.337Z,4.20
2018-07-10T08:54:33.482Z,4.30
2018-07-10T08:57:35.528Z,4.10
2018-07-10T09:00:37.725Z,4.40
2018-07-10T09:03:39.866Z,4.70
2018-07-10T09:06:44.254Z,4.37
2018-07-10T09:09:46.374Z,4.57
2018-07-10T09:12:48.468Z,4.30
2018-07-10T09:15:50.667Z,4.40
2018-07-10T09:18:52.739Z,4.40
2018-07-10T09:22:01.163Z,4.50
2018-07-10T09:25:04.533Z,4.30
2018-07-10T09:28:06.581Z,4.80
2018-07-10T09:31:08.724Z,4.73
2018-07-10T09:34:10.809Z,4.70
2018-07-10T09:37:18.527Z,4.87
2018-07-10T09:40:20.969Z,4.57
2018-07-10T09:43:24.541Z,4.60
2018-07-10T09:46:27.903Z,4.57
2018-07-10T09:49:30.434Z,11.03
2018-07-10T09:52:33.088Z,5.23
2018-07-10T09:55:35.217Z,4.40
2018-07-10T09:58:37.399Z,4.60
2018-07-10T10:01:39.621Z,4.63
2018-07-10T10:04:41.752Z,4.77
2018-07-10T10:07:45.159Z,4.40
2018-07-10T10:10:47.192Z,4.87
2018-07-10T10:13:49.634Z,4.50
2018-07-10T10:16:52.804Z,4.43
2018-07-10T10:19:56.419Z,3.97
2018-07-10T10:23:00.431Z,4.10
2018-07-10T10:26:02.704Z,3.77
2018-07-10T10:29:04.763Z,3.87
2018-07-10T10:32:07.953Z,3.70
2018-07-10T10:35:10.009Z,3.80
2018-07-10T10:38:12.257Z,7.00
2018-07-10T10:41:16.324Z,7.67
2018-07-10T10:44:18.480Z,14.60
2018-07-10T10:47:21.882Z,3.23
2018-07-10T10:50:23.957Z,3.67
2018-07-10T10:53:26.062Z,4.03
2018-07-10T10:56:28.260Z,3.30
2018-07-10T10:59:30.373Z,3.10
2018-07-10T11:02:32.498Z,2.90
2018-07-10T11:05:34.818Z,2.63
2018-07-10T11:08:37.015Z,3.20
2018-07-10T11:11:39.212Z,2.87
2018-07-10T11:14:44.415Z,2.80
2018-07-10T11:17:56.085Z,2.90
2018-07-10T11:21:22.805Z,3.33
2018-07-10T11:24:25.389Z,3.03
2018-07-10T11:27:33.957Z,3.10
2018-07-10T11:30:36.478Z,3.20
2018-07-10T11:33:38.614Z,2.90
2018-07-10T11:36:41.803Z,2.70
2018-07-10T11:39:44.596Z,2.70
2018-07-10T11:42:46.752Z,2.73
2018-07-10T11:45:48.954Z,3.00
2018-07-10T11:48:51.056Z,4.37
2018-07-10T11:51:54.440Z,2.60
2018-07-10T11:54:56.705Z,2.73
2018-07-10T11:57:59.306Z,2.47
2018-07-10T12:01:01.538Z,2.13
2018-07-10T12:04:04.077Z,2.10
2018-07-10T12:07:06.229Z,2.23
2018-07-10T12:10:19.718Z,2.10
2018-07-10T12:13:21.840Z,1.93
2018-07-10T12:16:23.936Z,2.13
2018-07-10T12:19:26.004Z,1.70
2018-07-10T12:22:28.188Z,2.43
2018-07-10T12:25:32.316Z,1.70
2018-07-10T12:28:34.463Z,2.03
2018-07-10T12:31:36.551Z,1.50
2018-07-10T12:34:39.677Z,1.70
2018-07-10T12:37:41.700Z,1.90
2018-07-10T12:40:44.365Z,2.43
2018-07-10T12:43:46.439Z,1.80
2018-07-10T12:46:48.644Z,1.70
2018-07-10T12:49:50.811Z,2.00
2018-07-10T12:52:52.981Z,1.53
2018-07-10T12:55:58.208Z,2.70
2018-07-10T12:59:00.298Z,1.70
2018-07-10T13:02:02.473Z,1.90
2018-07-10T13:05:05.764Z,1.40
2018-07-10T13:08:07.828Z,1.53
2018-07-10T13:11:10.000Z,1.50
2018-07-10T13:14:12.103Z,1.30
2018-07-10T13:17:15.541Z,1.30
2018-07-10T13:20:18.393Z,1.80
2018-07-10T13:23:20.592Z,1.50
2018-07-10T13:26:22.686Z,1.60
2018-07-10T13:29:24.728Z,1.73
2018-07-10T13:32:26.781Z,1.60
2018-07-10T13:35:30.247Z,1.70
2018-07-10T13:38:32.280Z,1.53
2018-07-10T13:41:34.788Z,2.10
2018-07-10T13:44:36.924Z,2.00
2018-07-10T13:47:39.060Z,1.97
2018-07-10T13:50:41.320Z,1.90
2018-07-10T13:53:43.999Z,2.00
2018-07-10T13:56:46.175Z,2.30
2018-07-10T13:59:48.635Z,2.30
2018-07-10T14:02:52.644Z,2.00
2018-07-10T14:05:55.012Z,2.40
2018-07-10T14:08:57.088Z,2.47
2018-07-10T14:11:59.313Z,2.40
2018-07-10T14:15:02.472Z,2.37
2018-07-10T14:18:05.028Z,2.30
2018-07-10T14:21:07.839Z,2.10
2018-07-10T14:24:10.011Z,2.27
2018-07-10T14:27:12.114Z,2.13
2018-07-10T14:30:14.730Z,2.03
2018-07-10T14:33:18.030Z,2.20
2018-07-10T14:36:20.132Z,2.10
2018-07-10T14:39:22.314Z,1.87
2018-07-10T14:42:24.569Z,2.87
2018-07-10T14:45:26.782Z,2.07
2018-07-10T14:48:32.144Z,2.50
2018-07-10T14:51:42.071Z,2.13
2018-07-10T14:54:45.192Z,2.00
2018-07-10T14:57:47.266Z,1.90
2018-07-10T15:00:49.803Z,2.00
2018-07-10T15:03:51.931Z,1.73
2018-07-10T15:06:54.048Z,1.70
2018-07-10T15:09:56.325Z,1.90
2018-07-10T15:12:58.445Z,1.73
2018-07-10T15:16:02.386Z,1.70
2018-07-10T15:19:04.427Z,1.80
2018-07-10T15:22:06.600Z,1.50
2018-07-10T15:25:08.634Z,2.10
2018-07-10T15:28:10.720Z,1.53
2018-07-10T15:31:12.954Z,1.80
2018-07-10T15:34:15.965Z,1.60
2018-07-10T15:37:18.625Z,1.70
2018-07-10T15:40:20.833Z,1.80
2018-07-10T15:43:23.859Z,1.60
2018-07-10T15:46:26.009Z,1.53
2018-07-10T15:49:28.251Z,1.43
2018-07-10T15:52:31.353Z,1.40
2018-07-10T15:55:33.371Z,1.60
2018-07-10T15:58:35.966Z,2.20
2018-07-10T16:01:38.015Z,1.60
2018-07-10T16:04:40.067Z,1.60
2018-07-10T16:07:42.306Z,1.50
2018-07-10T16:10:48.520Z,1.53
2018-07-10T16:13:50.616Z,1.50
2018-07-10T16:16:52.862Z,1.40
2018-07-10T16:20:06.205Z,1.60
2018-07-10T16:23:08.376Z,1.53
2018-07-10T16:26:15.912Z,1.40
2018-07-10T16:29:18.945Z,1.40
2018-07-10T16:32:21.021Z,1.40
2018-07-10T16:35:27.315Z,1.40
2018-07-10T16:38:29.780Z,1.33
2018-07-10T16:41:37.889Z,1.80
2018-07-10T16:44:41.943Z,1.60
2018-07-10T16:47:48.415Z,1.40
2018-07-10T16:51:09.147Z,1.50
2018-07-10T16:54:11.370Z,1.40
2018-07-10T16:57:13.560Z,1.40
2018-07-10T17:00:16.987Z,1.23
2018-07-10T17:03:19.095Z,1.50
2018-07-10T17:06:22.046Z,1.20
2018-07-10T17:09:24.148Z,1.50
2018-07-10T17:12:26.227Z,1.30
2018-07-10T17:15:28.443Z,1.40
2018-07-10T17:18:30.539Z,1.30
2018-07-10T17:21:33.804Z,1.40
2018-07-10T17:24:35.928Z,1.40
2018-07-10T17:27:38.557Z,1.23
2018-07-10T17:30:41.062Z,1.40
2018-07-10T17:33:43.349Z,1.23
2018-07-10T17:36:46.103Z,1.30
2018-07-10T17:39:48.803Z,1.50
2018-07-10T17:42:50.896Z,1.17
2018-07-10T17:45:52.963Z,1.40
2018-07-10T17:48:55.191Z,1.20
2018-07-10T17:51:57.285Z,1.30
2018-07-10T17:54:59.367Z,1.40
2018-07-10T17:58:02.394Z,1.80
2018-07-10T18:01:04.643Z,1.40
2018-07-10T18:04:07.227Z,1.60
2018-07-10T18:07:09.276Z,1.50
2018-07-10T18:10:11.514Z,1.50
2018-07-10T18:13:13.694Z,1.50
2018-07-10T18:16:16.805Z,1.40
2018-07-10T18:19:18.975Z,1.70
2018-07-10T18:22:21.069Z,1.47
2018-07-10T18:25:23.224Z,1.40
2018-07-10T18:28:25.417Z,1.63
2018-07-10T18:31:27.640Z,1.80
2018-07-10T18:34:29.819Z,1.70
2018-07-10T18:37:31.895Z,1.53
2018-07-10T18:40:34.156Z,1.47
2018-07-10T18:43:36.279Z,1.60
2018-07-10T18:46:38.256Z,1.70
2018-07-10T18:49:40.631Z,1.50
2018-07-10T18:52:42.824Z,1.60
2018-07-10T18:55:44.963Z,1.73
2018-07-10T18:58:57.056Z,1.57
2018-07-10T19:02:03.560Z,1.60
2018-07-10T19:05:07.145Z,1.60
2018-07-10T19:08:09.283Z,1.30
2018-07-10T19:11:14.342Z,1.40
2018-07-10T19:14:17.511Z,1.30
2018-07-10T19:17:25.240Z,1.30
2018-07-10T19:20:29.339Z,1.50
2018-07-10T19:23:37.287Z,1.47
2018-07-10T19:26:39.336Z,1.50
2018-07-10T19:29:49.711Z,1.30
2018-07-10T19:32:51.886Z,1.40
2018-07-10T19:35:54.066Z,1.70
2018-07-10T19:38:56.212Z,1.30
2018-07-10T19:41:58.311Z,1.53
2018-07-10T19:45:01.518Z,1.40
2018-07-10T19:48:03.792Z,1.60
2018-07-10T19:51:08.067Z,1.37
2018-07-10T19:54:12.123Z,1.57
2018-07-10T19:57:22.992Z,1.40
2018-07-10T20:00:26.706Z,1.60
2018-07-10T20:03:53.713Z,1.50
2018-07-10T20:07:10.632Z,1.30
2018-07-10T20:10:22.963Z,1.47
2018-07-10T20:13:35.764Z,1.30
2018-07-10T20:16:43.785Z,1.43
2018-07-10T20:19:49.662Z,1.40
2018-07-10T20:23:09.120Z,1.30
2018-07-10T20:26:53.963Z,1.67
2018-07-10T20:30:36.411Z,1.80
2018-07-10T20:35:15.523Z,1.50
2018-07-10T20:38:18.275Z,1.53
2018-07-10T20:41:20.710Z,1.43
2018-07-10T20:44:22.884Z,1.70
2018-07-10T20:47:27.941Z,1.60
2018-07-10T20:50:45.610Z,1.43
2018-07-10T20:53:55.480Z,1.50
2018-07-10T20:57:02.000Z,1.40
2018-07-10T21:00:09.572Z,1.60
2018-07-10T21:03:22.231Z,1.33
2018-07-10T21:06:35.650Z,1.30
2018-07-10T21:09:51.885Z,1.37
2018-07-10T21:13:01.675Z,1.33
2018-07-10T21:16:08.846Z,1.40
2018-07-10T21:19:23.968Z,1.13
2018-07-10T21:23:37.396Z,1.53
2018-07-10T21:26:46.413Z,1.53
2018-07-10T21:29:56.259Z,1.40
2018-07-10T21:33:02.861Z,1.20
2018-07-10T21:36:06.431Z,1.33
2018-07-10T21:39:19.930Z,1.17
2018-07-10T21:42:38.951Z,1.20
2018-07-10T21:45:51.381Z,1.30
2018-07-10T21:49:58.957Z,1.40
2018-07-10T21:53:01.723Z,1.37
2018-07-10T21:56:04.039Z,1.50
2018-07-10T21:59:06.177Z,1.27
2018-07-10T22:02:09.172Z,1.20
2018-07-10T22:05:11.348Z,1.40
2018-07-10T22:08:14.499Z,1.40
2018-07-10T22:11:16.771Z,1.37
2018-07-10T22:14:19.179Z,1.63
2018-07-10T22:17:22.639Z,1.50
2018-07-10T22:20:24.828Z,1.30
2018-07-10T22:23:26.975Z,1.70
2018-07-10T22:26:29.300Z,1.67
2018-07-10T22:29:38.396Z,1.30
2018-07-10T22:32:46.400Z,1.53
2018-07-10T22:35:48.508Z,1.27
2018-07-10T22:38:51.300Z,1.50
2018-07-10T22:41:53.991Z,1.60
2018-07-10T22:44:57.831Z,1.50
2018-07-10T22:48:00.713Z,1.40
2018-07-10T22:51:03.180Z,1.50
2018-07-10T22:54:05.756Z,1.50
2018-07-10T22:57:09.162Z,1.23
2018-07-10T23:00:34.767Z,1.50
2018-07-10T23:03:36.968Z,1.50
2018-07-10T23:06:39.068Z,1.83
2018-07-10T23:09:41.140Z,1.80
2018-07-10T23:12:43.148Z,1.97
2018-07-10T23:15:46.036Z,1.77
2018-07-10T23:18:48.096Z,1.90
2018-07-10T23:21:50.260Z,1.57
2018-07-10T23:24:52.291Z,1.77
2018-07-10T23:27:59.982Z,2.00
2018-07-10T23:31:03.392Z,1.87
2018-07-10T23:34:10.088Z,1.80
2018-07-10T23:37:12.199Z,2.00
2018-07-10T23:40:14.344Z,1.80
2018-07-10T23:43:16.934Z,2.00
2018-07-10T23:46:30.380Z,2.00
2018-07-10T23:49:32.556Z,2.20
2018-07-10T23:53:45.300Z,2.10
2018-07-10T23:56:47.436Z,2.30
2018-07-10T23:59:49.477Z,2.43
